Monday, September 01, 2014
11:27 UTC
  |  Log In   |  Register Free
Airport Search:

Raton Municipal/Crews Field Airport
(KRTN)

Raton Municipal/Crews Field Airport Diagram
No Airport Diagram Available

FAA data valid effective July 24, 2014 until September 18, 2014 (unless otherwise noted).

 
 
 
 
 
 
 
 
 
 
 
 
 
 

Current Aviation Weather for Raton Municipal/Crews Field Airport (KRTN)

The most recent METAR observation for KRTN was updated at: 1053 UTC
METAR Summary (Translated METAR)
KRTN
011053Z AUTO 07006KT 10SM CLR 12/02 A3006 RMK AO2 SLP085 T01170017
KTAD
(32 nm NE from KRTN)
011054Z AUTO 29006KT 10SM CLR 11/07 A3008 RMK AO2 SLP104 T01060072
TAF
No TAF information found within 50 nm of KRTN
  Airport Weather Conditions for KRTN

 Current Weather at RTN
54° F
Fair
Northeast winds at 8.1 mph
RTN NOAA Radar

Pressure: 30.05 in
Humidity: 49%
Wind: Northeast at 8.1 MPH (7 KT)
Dew Point: 35.1°F
Visibility: 10.00 mi


Airport Weather Forecast for KRTN

Translated METAR and TAF for KRTN
Translated METAR for KRTN (1121 UTC 01 September 2014)
found at http://aviationweather.gov/adds/metars/
 
METAR text: KRTN 011053Z AUTO 07006KT 10SM CLR 12/02 A3006 RMK AO2 SLP085 T01170017
Conditions at: KRTN (RATON , NM, US) observed 1053 UTC 01 September 2014
Temperature: 11.7°C (53°F)
Dewpoint: 1.7°C (35°F) [RH = 50%]
Pressure (altimeter): 30.06 inches Hg (1018.0 mb)
[Sea-level pressure: 1008.5 mb]
Winds: from the ENE (70 degrees) at 7 MPH (6 knots; 3.1 m/s)
Visibility: 10 or more miles (16+ km)
Ceiling: at least 12,000 feet AGL
Clouds: sky clear below 12,000 feet AGL
Weather: automated observation with no human augmentation;
there may or may not be significant weather present at this time
Translated TAF for KRTN

There is no translated TAF available for this airport

Find All Airport Services Find A Hotel Find A Rental Car Find A Golf Course Find A Restaurant $100 Hamburger



FBO's on the Field
FBO Company Facility Photos Services Transportation Aviation Fuel Prices: Prices include tax
Catering Weather Repair Courtesy Rental Type 100LL JetA JetA+ MOGAS 8087
 
Pegasus Aviation

This FBO has not yet been rated
FS:Phillips66
Last Updated: Aug-14
Login to update fuel prices
SS:
Contact Pegasus AviationMore FBO Information
 
Add another FBO Facility Photos Catering Weather Repair Courtesy Rental Type 100LL JetA JetA+ MOGAS 8087
Services Transportation Aviation Fuel Prices: Prices include tax


GlobalAir.com Airport Resource Center model-print
model-print
model-print
model-print